Waddell, Arizona
Current Conditions -  °F | °C
As of 6:58 PM on Wednesday 22 Oct 2014 (Local Time) from KLUF Reporting Station
Clear Clear  
Wind Chill: 82°   Ceiling: Unl
Heat Index: 82°   Visibility: 10mi
Dew Point: 50°   Wind: 0mph
Humidity: 33%   Direction: NA
Pressure: 29.91"   Gusts: NA
Location:  33.57°N, 112.43°W
Report Text: KLUF 230158Z AUTO 00000KT 10SM CLR 28/10 A2991 RMK AO2 SLP120 T02770102 $
Loading
Personal Weather Stations






























Interactive Weather Map New forecast layout! Learn more

10-Day Weather Forecast

Advertisements
Track Severe Weather on mobile